Time;durP1;ratioP1;P1;durP2;ratioP2;P2;SDS_P1;SDS_P2;PMS_P1;PMS_P2;Temp;Humidity;BMP_temperature;BMP_pressure;BME280_temperature;BME280_humidity;BME280_pressure;Samples;Min_cycle;Max_cycle;Signal;HPM_P1;HPM_P2
2023/12/25 00:01:23;;;;;;;;;;;6.40;99.90;;;;;;5015932;28;19913;-84
2023/12/25 00:03:48;;;;;;;;;;;6.40;99.90;;;;;;5029626;28;19963;-84
2023/12/25 00:06:14;;;;;;;;;;;6.40;99.90;;;;;;5030829;28;19913;-84
2023/12/25 00:08:40;;;;;;;;;;;6.40;99.90;;;;;;5031220;28;19959;-83
2023/12/25 00:11:05;;;;;;;;;;;6.40;99.90;;;;;;5030886;28;20007;-84
2023/12/25 00:13:31;;;;;;;;;;;6.40;99.90;;;;;;5046675;28;19923;-84
2023/12/25 00:15:56;;;;;;;;;;;6.40;99.90;;;;;;5030237;28;20276;-84
2023/12/25 00:18:22;;;;;;;;;;;6.40;99.90;;;;;;5031104;28;20354;-84
2023/12/25 00:20:48;;;;;;;;;;;6.40;99.90;;;;;;5032055;28;20268;-85
2023/12/25 00:23:13;;;;;;;;;;;6.30;99.90;;;;;;5030884;28;19916;-84
2023/12/25 00:25:39;;;;;;;;;;;6.30;99.90;;;;;;5030779;28;19912;-83
2023/12/25 00:28:07;;;;;;;;;;;6.30;99.90;;;;;;5014427;28;19913;-84
2023/12/25 00:30:33;;;;;;;;;;;6.30;99.90;;;;;;5030743;28;19913;-84
2023/12/25 00:32:58;;;;;;;;;;;6.30;99.90;;;;;;5030675;28;19913;-84
2023/12/25 00:35:24;;;;;;;;;;;6.30;99.90;;;;;;5030730;28;19959;-84
2023/12/25 00:37:55;;;;;;;;;;;6.30;99.90;;;;;;5030761;28;19913;-84
2023/12/25 00:40:20;;;;;;;;;;;6.30;99.90;;;;;;5031251;28;19916;-84
2023/12/25 00:42:46;;;;;;;;;;;6.30;99.90;;;;;;5030646;28;20664;-84
2023/12/25 00:45:11;;;;;;;;;;;6.30;99.90;;;;;;5031376;28;19999;-85
2023/12/25 00:47:37;;;;;;;;;;;6.30;99.90;;;;;;5030962;28;19910;-84
2023/12/25 00:50:03;;;;;;;;;;;6.30;99.90;;;;;;5031138;28;19904;-84
2023/12/25 00:52:28;;;;;;;;;;;6.30;99.90;;;;;;5031241;28;19909;-84
2023/12/25 00:54:54;;;;;;;;;;;6.40;99.90;;;;;;5030441;28;20003;-84
2023/12/25 00:57:19;;;;;;;;;;;6.30;99.90;;;;;;5028150;28;19909;-84
2023/12/25 00:59:46;;;;;;;;;;;6.40;99.90;;;;;;5015313;28;19917;-84
2023/12/25 01:02:11;;;;;;;;;;;6.40;99.90;;;;;;5031408;28;20016;-84
2023/12/25 01:04:37;;;;;;;;;;;6.40;99.90;;;;;;5031400;28;20001;-84
2023/12/25 01:07:02;;;;;;;;;;;6.40;99.90;;;;;;5030926;28;19909;-85
2023/12/25 01:09:28;;;;;;;;;;;6.40;99.90;;;;;;5031151;28;20003;-84
2023/12/25 01:11:53;;;;;;;;;;;6.40;99.90;;;;;;5031645;28;20348;-84
2023/12/25 01:14:19;;;;;;;;;;;6.40;99.90;;;;;;5030837;28;19912;-83
2023/12/25 01:16:45;;;;;;;;;;;6.40;99.90;;;;;;5035140;28;19917;-84
2023/12/25 01:19:12;;;;;;;;;;;6.40;99.90;;;;;;5034607;28;19959;-85
2023/12/25 01:21:38;;;;;;;;;;;6.40;99.90;;;;;;5035001;28;19959;-84
2023/12/25 01:24:03;;;;;;;;;;;6.40;99.90;;;;;;5033990;28;19929;-84
2023/12/25 01:26:30;;;;;;;;;;;6.40;99.90;;;;;;5034479;28;19916;-84
2023/12/25 01:28:56;;;;;;;;;;;6.50;99.90;;;;;;5035027;28;19913;-84
2023/12/25 01:31:21;;;;;;;;;;;6.50;99.90;;;;;;5034929;28;19916;-84
2023/12/25 01:33:47;;;;;;;;;;;6.50;99.90;;;;;;5018327;28;19915;-84
2023/12/25 01:36:14;;;;;;;;;;;6.50;99.90;;;;;;5034115;28;19988;-84
2023/12/25 01:38:39;;;;;;;;;;;6.50;99.90;;;;;;5034400;28;20047;-84
2023/12/25 01:41:05;;;;;;;;;;;6.50;99.90;;;;;;5034530;28;20264;-84
2023/12/25 01:43:30;;;;;;;;;;;6.50;99.90;;;;;;5034513;28;19917;-84
2023/12/25 01:45:56;;;;;;;;;;;6.50;99.90;;;;;;5034556;28;20411;-84
2023/12/25 01:48:23;;;;;;;;;;;6.40;99.90;;;;;;5034337;28;19928;-85
2023/12/25 01:50:48;;;;;;;;;;;6.40;99.90;;;;;;5034438;28;19963;-85
2023/12/25 01:53:14;;;;;;;;;;;6.40;99.90;;;;;;5034057;28;19908;-84
2023/12/25 01:55:40;;;;;;;;;;;6.40;99.90;;;;;;5034561;28;19935;-84
2023/12/25 01:58:05;;;;;;;;;;;6.40;99.90;;;;;;5014547;28;19921;-84
2023/12/25 02:00:31;;;;;;;;;;;6.50;99.90;;;;;;5034174;28;19920;-84
2023/12/25 02:02:57;;;;;;;;;;;6.40;99.90;;;;;;5034810;28;19913;-84
2023/12/25 02:05:22;;;;;;;;;;;6.40;99.90;;;;;;5034848;28;19970;-83
2023/12/25 02:07:48;;;;;;;;;;;6.40;99.90;;;;;;5034545;28;20337;-84
2023/12/25 02:10:32;;;;;;;;;;;6.50;99.90;;;;;;5018308;28;19909;-84
2023/12/25 02:13:00;;;;;;;;;;;6.40;99.90;;;;;;5034900;28;20276;-84
2023/12/25 02:15:25;;;;;;;;;;;6.40;99.90;;;;;;5034539;28;19920;-84
2023/12/25 02:17:51;;;;;;;;;;;6.40;99.90;;;;;;5034641;28;20261;-84
2023/12/25 02:20:18;;;;;;;;;;;6.40;99.90;;;;;;5037019;28;20313;-84
2023/12/25 02:22:44;;;;;;;;;;;6.40;99.90;;;;;;5042200;28;19909;-84
2023/12/25 02:25:33;;;;;;;;;;;6.40;99.90;;;;;;5034859;28;19970;-84
2023/12/25 02:27:59;;;;;;;;;;;6.40;99.90;;;;;;5016542;28;20389;-84
2023/12/25 02:30:25;;;;;;;;;;;6.40;99.90;;;;;;5033575;28;19920;-84
2023/12/25 02:32:51;;;;;;;;;;;6.40;99.90;;;;;;5033779;28;20345;-84
2023/12/25 02:35:16;;;;;;;;;;;6.40;99.90;;;;;;5034473;28;20545;-84
2023/12/25 02:37:42;;;;;;;;;;;6.40;99.90;;;;;;5034201;28;19909;-85
2023/12/25 02:40:08;;;;;;;;;;;6.40;99.90;;;;;;5034000;28;20280;-84
2023/12/25 02:42:34;;;;;;;;;;;6.40;99.90;;;;;;5033591;28;19913;-84
2023/12/25 02:44:59;;;;;;;;;;;6.40;99.90;;;;;;5017139;28;19913;-84
2023/12/25 02:47:25;;;;;;;;;;;6.40;99.90;;;;;;5033753;28;20038;-84
2023/12/25 02:49:50;;;;;;;;;;;6.30;99.90;;;;;;5033335;28;19912;-85
2023/12/25 02:52:17;;;;;;;;;;;6.30;99.90;;;;;;5033863;28;20563;-85
2023/12/25 02:54:42;;;;;;;;;;;6.30;99.90;;;;;;5033560;28;20010;-84
2023/12/25 02:57:08;;;;;;;;;;;6.30;99.90;;;;;;5033429;28;20280;-84
2023/12/25 03:03:01;;;;;;;;;;;6.30;99.90;;;;;;5034420;28;19975;-84
2023/12/25 03:05:42;;;;;;;;;;;6.30;99.90;;;;;;5032878;28;20651;-85
2023/12/25 03:08:08;;;;;;;;;;;6.30;99.90;;;;;;5032757;28;20368;-84
2023/12/25 03:10:33;;;;;;;;;;;6.30;99.90;;;;;;5032867;28;19912;-83
2023/12/25 03:12:59;;;;;;;;;;;6.20;99.90;;;;;;5032337;28;20276;-84
2023/12/25 03:15:25;;;;;;;;;;;6.20;99.90;;;;;;5032783;28;19916;-84
2023/12/25 03:17:50;;;;;;;;;;;6.20;99.90;;;;;;5033113;28;20000;-84
2023/12/25 03:20:16;;;;;;;;;;;6.30;99.90;;;;;;5032507;28;19944;-85
2023/12/25 03:22:42;;;;;;;;;;;6.30;99.90;;;;;;5032234;28;19905;-84
2023/12/25 03:25:07;;;;;;;;;;;6.20;99.90;;;;;;5032137;28;20265;-85
2023/12/25 03:27:33;;;;;;;;;;;6.20;99.90;;;;;;5031913;28;19908;-84
2023/12/25 03:29:58;;;;;;;;;;;6.20;99.90;;;;;;5031746;28;19913;-84
2023/12/25 03:32:24;;;;;;;;;;;6.10;99.90;;;;;;5031490;28;19967;-84
2023/12/25 03:34:50;;;;;;;;;;;6.10;99.90;;;;;;5047794;28;19917;-84
2023/12/25 03:37:16;;;;;;;;;;;6.10;99.90;;;;;;5030829;28;20007;-84
2023/12/25 03:39:41;;;;;;;;;;;6.00;99.90;;;;;;5032533;28;20019;-84
2023/12/25 03:42:07;;;;;;;;;;;6.00;99.90;;;;;;5031430;28;20360;-84
2023/12/25 03:44:32;;;;;;;;;;;6.00;99.90;;;;;;5048530;28;19963;-84
2023/12/25 03:46:58;;;;;;;;;;;6.00;99.90;;;;;;5031811;28;20360;-84
2023/12/25 03:49:24;;;;;;;;;;;6.00;99.90;;;;;;5031909;28;20399;-85
2023/12/25 03:51:49;;;;;;;;;;;6.00;99.90;;;;;;5031386;28;19974;-83
2023/12/25 03:54:15;;;;;;;;;;;6.00;99.90;;;;;;5031401;28;20257;-85
2023/12/25 03:56:40;;;;;;;;;;;6.00;99.90;;;;;;5031466;28;19913;-85
2023/12/25 03:59:07;;;;;;;;;;;6.00;99.90;;;;;;5027814;28;20414;-84
2023/12/25 04:01:37;;;;;;;;;;;5.90;99.90;;;;;;5031805;28;19912;-84
2023/12/25 04:04:04;;;;;;;;;;;5.90;99.90;;;;;;5015425;28;19959;-85
2023/12/25 04:06:30;;;;;;;;;;;5.90;99.90;;;;;;5031616;28;20447;-85
2023/12/25 04:08:56;;;;;;;;;;;5.90;99.90;;;;;;5031798;28;19909;-85
2023/12/25 04:11:22;;;;;;;;;;;6.00;99.90;;;;;;5047733;28;19913;-85
2023/12/25 04:13:48;;;;;;;;;;;5.90;99.90;;;;;;5030982;28;20361;-85
2023/12/25 04:16:21;;;;;;;;;;;5.90;99.90;;;;;;5031516;28;19918;-85
2023/12/25 04:18:47;;;;;;;;;;;5.90;99.90;;;;;;5031747;28;19909;-86
2023/12/25 04:21:20;;;;;;;;;;;6.00;99.90;;;;;;5030989;28;19913;-85
2023/12/25 04:23:53;;;;;;;;;;;5.90;99.90;;;;;;5031475;28;19924;-84
2023/12/25 04:26:19;;;;;;;;;;;5.90;99.90;;;;;;5031264;28;19913;-84
2023/12/25 04:28:46;;;;;;;;;;;5.90;99.90;;;;;;5030929;28;20054;-85
2023/12/25 04:31:11;;;;;;;;;;;5.90;99.90;;;;;;5031580;28;20300;-85
2023/12/25 04:33:37;;;;;;;;;;;5.90;99.90;;;;;;5047670;28;19909;-85
2023/12/25 04:36:05;;;;;;;;;;;5.90;99.90;;;;;;5031474;28;19976;-84
2023/12/25 04:38:31;;;;;;;;;;;6.00;99.90;;;;;;5031140;28;19916;-85
2023/12/25 04:40:57;;;;;;;;;;;5.90;99.90;;;;;;5030405;28;20565;-85
2023/12/25 04:43:24;;;;;;;;;;;5.90;99.90;;;;;;5030771;28;19913;-84
2023/12/25 04:45:50;;;;;;;;;;;6.00;99.90;;;;;;5031302;28;19916;-85
2023/12/25 04:48:15;;;;;;;;;;;6.00;99.90;;;;;;5047817;28;19917;-85
2023/12/25 04:50:41;;;;;;;;;;;5.90;99.90;;;;;;5035708;28;20375;-85
2023/12/25 04:53:07;;;;;;;;;;;5.90;99.90;;;;;;5038265;28;19953;-84
2023/12/25 04:55:32;;;;;;;;;;;6.00;99.90;;;;;;5038402;28;20611;-85
2023/12/25 04:58:00;;;;;;;;;;;6.00;99.90;;;;;;5038860;28;19944;-84
2023/12/25 05:00:28;;;;;;;;;;;5.90;99.90;;;;;;5035507;28;19956;-84
2023/12/25 05:02:53;;;;;;;;;;;5.90;99.90;;;;;;5054896;28;19920;-85
2023/12/25 05:05:19;;;;;;;;;;;5.90;99.90;;;;;;5037637;28;19947;-84
2023/12/25 05:07:45;;;;;;;;;;;5.90;99.90;;;;;;5037573;28;19917;-85
2023/12/25 05:10:11;;;;;;;;;;;5.90;99.90;;;;;;5037992;28;19920;-85
2023/12/25 05:12:36;;;;;;;;;;;5.90;99.90;;;;;;5038074;28;19909;-84
2023/12/25 05:15:02;;;;;;;;;;;5.90;99.90;;;;;;5021165;28;19951;-84
2023/12/25 05:17:28;;;;;;;;;;;5.90;99.90;;;;;;5036811;28;20336;-84
2023/12/25 05:19:53;;;;;;;;;;;5.90;99.90;;;;;;5053836;28;20047;-85
2023/12/25 05:22:19;;;;;;;;;;;5.90;99.90;;;;;;5021194;28;19951;-84
2023/12/25 05:24:45;;;;;;;;;;;5.90;99.90;;;;;;5037827;28;19917;-85
2023/12/25 05:27:10;;;;;;;;;;;5.90;99.90;;;;;;5037819;28;19935;-85
2023/12/25 05:29:36;;;;;;;;;;;6.00;99.90;;;;;;5037536;28;20372;-84
2023/12/25 05:32:02;;;;;;;;;;;5.90;99.90;;;;;;5037580;28;20022;-84
2023/12/25 05:34:27;;;;;;;;;;;6.00;99.90;;;;;;5036935;28;19916;-85
2023/12/25 05:36:53;;;;;;;;;;;6.00;99.90;;;;;;5054201;28;19909;-84
2023/12/25 05:39:19;;;;;;;;;;;6.00;99.90;;;;;;5036916;28;20368;-85
2023/12/25 05:41:44;;;;;;;;;;;6.00;99.90;;;;;;5037215;28;20253;-84
2023/12/25 05:44:10;;;;;;;;;;;6.00;99.90;;;;;;5037876;28;19924;-84
2023/12/25 05:46:36;;;;;;;;;;;6.00;99.90;;;;;;5037727;28;19909;-85
2023/12/25 05:49:02;;;;;;;;;;;6.00;99.90;;;;;;5037622;28;19995;-84
2023/12/25 05:51:28;;;;;;;;;;;6.00;99.90;;;;;;5038176;28;19909;-84
2023/12/25 05:53:54;;;;;;;;;;;6.00;99.90;;;;;;5037603;28;19919;-84
2023/12/25 05:56:19;;;;;;;;;;;6.00;99.90;;;;;;5047745;28;20233;-84
2023/12/25 05:58:45;;;;;;;;;;;6.00;99.90;;;;;;5041532;28;19963;-84
2023/12/25 06:01:12;;;;;;;;;;;6.00;99.90;;;;;;5033977;28;20364;-85
2023/12/25 06:03:38;;;;;;;;;;;6.00;99.90;;;;;;5036086;28;19917;-85
2023/12/25 06:06:04;;;;;;;;;;;6.00;99.90;;;;;;5035576;28;19916;-84
2023/12/25 06:08:30;;;;;;;;;;;6.00;99.90;;;;;;5034561;28;19924;-83
2023/12/25 06:10:56;;;;;;;;;;;6.00;99.90;;;;;;5035518;28;19905;-85
2023/12/25 06:13:22;;;;;;;;;;;6.00;99.90;;;;;;5034088;28;20570;-85
2023/12/25 06:15:48;;;;;;;;;;;6.10;99.90;;;;;;5018035;28;19913;-84
2023/12/25 06:18:14;;;;;;;;;;;6.00;99.90;;;;;;5035073;28;19909;-84
2023/12/25 06:20:40;;;;;;;;;;;6.00;99.90;;;;;;5034445;28;19916;-84
2023/12/25 06:23:06;;;;;;;;;;;6.00;99.90;;;;;;5034696;28;19913;-85
2023/12/25 06:25:31;;;;;;;;;;;6.00;99.90;;;;;;5034425;28;19932;-84
2023/12/25 06:27:57;;;;;;;;;;;6.00;99.90;;;;;;5017077;28;20007;-85
2023/12/25 06:30:22;;;;;;;;;;;6.00;99.90;;;;;;5033192;28;19913;-84
2023/12/25 06:32:48;;;;;;;;;;;6.00;99.90;;;;;;5033595;28;19963;-84
2023/12/25 06:35:14;;;;;;;;;;;6.00;99.90;;;;;;5033263;28;20260;-85
2023/12/25 06:37:39;;;;;;;;;;;6.00;99.90;;;;;;5032249;28;20428;-85
2023/12/25 06:40:08;;;;;;;;;;;6.00;99.90;;;;;;5032907;28;20538;-85
2023/12/25 06:42:34;;;;;;;;;;;6.00;99.90;;;;;;5033087;28;19913;-84
2023/12/25 06:45:02;;;;;;;;;;;5.90;99.90;;;;;;5033016;28;19917;-85
2023/12/25 06:47:28;;;;;;;;;;;5.90;99.90;;;;;;5032681;28;20066;-85
2023/12/25 06:49:53;;;;;;;;;;;5.90;99.90;;;;;;5033157;28;19948;-84
2023/12/25 06:52:19;;;;;;;;;;;5.90;99.90;;;;;;5032872;28;19909;-85
2023/12/25 06:54:45;;;;;;;;;;;6.00;99.90;;;;;;5033364;28;19920;-85
2023/12/25 06:57:14;;;;;;;;;;;6.00;99.90;;;;;;5032767;28;19913;-85
2023/12/25 06:59:40;;;;;;;;;;;6.00;99.90;;;;;;5032906;28;19905;-85
2023/12/25 07:02:07;;;;;;;;;;;6.00;99.90;;;;;;5033013;28;19959;-84
2023/12/25 07:04:33;;;;;;;;;;;5.90;99.90;;;;;;5032227;28;20376;-85
2023/12/25 07:06:59;;;;;;;;;;;5.90;99.90;;;;;;5032321;28;19944;-84
2023/12/25 07:09:25;;;;;;;;;;;6.00;99.90;;;;;;5032474;28;19913;-85
2023/12/25 07:11:51;;;;;;;;;;;5.90;99.90;;;;;;5032556;28;20543;-85
2023/12/25 07:14:17;;;;;;;;;;;5.90;99.90;;;;;;5032760;28;19920;-85
2023/12/25 07:16:42;;;;;;;;;;;5.90;99.90;;;;;;5032781;28;19917;-85
2023/12/25 07:19:08;;;;;;;;;;;5.90;99.90;;;;;;5032028;28;19964;-85
2023/12/25 07:21:33;;;;;;;;;;;5.90;99.90;;;;;;5032289;28;19920;-85
2023/12/25 07:23:59;;;;;;;;;;;6.00;99.90;;;;;;5032016;28;19954;-85
2023/12/25 07:26:25;;;;;;;;;;;5.90;99.90;;;;;;5015323;28;19912;-85
2023/12/25 07:28:51;;;;;;;;;;;5.90;99.90;;;;;;5032627;28;19913;-85
2023/12/25 07:31:17;;;;;;;;;;;5.90;99.90;;;;;;5033232;28;19917;-84
2023/12/25 07:33:43;;;;;;;;;;;5.90;99.90;;;;;;5015558;28;19917;-85
2023/12/25 07:36:09;;;;;;;;;;;5.90;99.90;;;;;;5016075;28;19931;-86
2023/12/25 07:38:34;;;;;;;;;;;5.80;99.90;;;;;;5032840;28;19913;-85
2023/12/25 07:41:00;;;;;;;;;;;6.00;99.90;;;;;;5032510;28;20020;-85
2023/12/25 07:43:27;;;;;;;;;;;5.90;99.90;;;;;;5031636;28;20062;-85
2023/12/25 07:45:53;;;;;;;;;;;5.90;99.90;;;;;;5031857;28;19909;-85
2023/12/25 07:48:18;;;;;;;;;;;5.90;99.90;;;;;;5032266;28;20407;-85
2023/12/25 07:50:44;;;;;;;;;;;5.90;99.90;;;;;;5031446;28;19956;-85
2023/12/25 07:53:10;;;;;;;;;;;5.90;99.90;;;;;;5031682;28;19919;-85
2023/12/25 07:55:38;;;;;;;;;;;5.90;99.90;;;;;;5031047;28;19951;-85
2023/12/25 07:58:04;;;;;;;;;;;5.90;99.90;;;;;;5031143;28;19913;-85
2023/12/25 08:00:29;;;;;;;;;;;5.90;99.90;;;;;;5031205;28;19963;-85
2023/12/25 08:02:55;;;;;;;;;;;5.80;99.90;;;;;;5031311;28;19923;-85
2023/12/25 08:05:21;;;;;;;;;;;5.80;99.90;;;;;;5031121;28;19921;-86
2023/12/25 08:07:47;;;;;;;;;;;5.90;99.90;;;;;;5030881;28;19909;-84
2023/12/25 08:10:13;;;;;;;;;;;5.90;99.90;;;;;;5031396;28;19909;-86
2023/12/25 08:12:42;;;;;;;;;;;5.90;99.90;;;;;;5031230;28;20387;-85
2023/12/25 08:15:11;;;;;;;;;;;5.80;99.90;;;;;;5031206;28;19986;-85
2023/12/25 08:17:37;;;;;;;;;;;5.80;99.90;;;;;;5014918;28;19912;-84
2023/12/25 08:20:03;;;;;;;;;;;5.80;99.90;;;;;;5031648;28;20309;-85
2023/12/25 08:22:29;;;;;;;;;;;5.80;99.90;;;;;;5031430;28;19956;-85
2023/12/25 08:24:54;;;;;;;;;;;5.80;99.90;;;;;;5030400;28;20356;-85
2023/12/25 08:27:20;;;;;;;;;;;5.80;99.90;;;;;;5031587;28;19909;-85
2023/12/25 08:29:46;;;;;;;;;;;5.80;99.90;;;;;;5030731;28;19919;-85
2023/12/25 08:32:14;;;;;;;;;;;5.80;99.90;;;;;;5030989;28;19908;-85
2023/12/25 08:34:41;;;;;;;;;;;5.80;99.90;;;;;;5031778;28;19909;-84
2023/12/25 08:37:08;;;;;;;;;;;5.80;99.90;;;;;;5031735;28;20062;-84
2023/12/25 08:39:33;;;;;;;;;;;5.80;99.90;;;;;;5031694;28;19920;-84
2023/12/25 08:42:01;;;;;;;;;;;5.80;99.90;;;;;;5031212;28;20313;-84
2023/12/25 08:44:27;;;;;;;;;;;5.80;99.90;;;;;;5031948;28;19917;-84
2023/12/25 08:46:53;;;;;;;;;;;5.80;99.90;;;;;;5031784;28;19920;-84
2023/12/25 08:49:18;;;;;;;;;;;5.80;99.90;;;;;;5032761;28;19919;-85
2023/12/25 08:51:44;;;;;;;;;;;5.80;99.90;;;;;;5031486;28;20012;-85
2023/12/25 08:54:09;;;;;;;;;;;5.80;99.90;;;;;;5026277;28;20626;-85
2023/12/25 08:56:35;;;;;;;;;;;5.80;99.90;;;;;;5031720;28;19912;-84
2023/12/25 08:59:04;;;;;;;;;;;5.80;99.90;;;;;;5031133;28;19913;-84
2023/12/25 09:01:30;;;;;;;;;;;5.80;99.90;;;;;;5031210;28;20432;-84
2023/12/25 09:03:58;;;;;;;;;;;5.80;99.90;;;;;;5031548;28;19913;-86
2023/12/25 09:06:25;;;;;;;;;;;5.80;99.90;;;;;;5030794;28;19963;-85
2023/12/25 09:08:51;;;;;;;;;;;5.80;99.90;;;;;;5030742;28;19909;-85
2023/12/25 09:11:17;;;;;;;;;;;5.80;99.90;;;;;;5030379;28;19916;-85
2023/12/25 09:13:43;;;;;;;;;;;5.80;99.90;;;;;;5031185;28;19913;-85
2023/12/25 09:16:08;;;;;;;;;;;5.80;99.90;;;;;;5014809;28;20631;-85
2023/12/25 09:18:34;;;;;;;;;;;5.80;99.90;;;;;;5030937;28;19916;-85
2023/12/25 09:21:05;;;;;;;;;;;5.80;99.90;;;;;;5030576;28;19920;-85
2023/12/25 09:23:31;;;;;;;;;;;5.70;99.90;;;;;;5030085;28;19920;-85
2023/12/25 09:25:56;;;;;;;;;;;5.70;99.90;;;;;;5030020;28;19931;-85
2023/12/25 09:28:22;;;;;;;;;;;5.70;99.90;;;;;;5036680;28;20463;-85
2023/12/25 09:30:48;;;;;;;;;;;5.80;99.90;;;;;;5037043;28;20268;-85
2023/12/25 09:33:13;;;;;;;;;;;5.70;99.90;;;;;;5030108;28;19909;-84
2023/12/25 09:35:39;;;;;;;;;;;5.70;99.90;;;;;;5030002;28;19917;-85
2023/12/25 09:38:04;;;;;;;;;;;5.70;99.90;;;;;;5034214;28;20012;-85
2023/12/25 09:40:30;;;;;;;;;;;5.70;99.90;;;;;;5034628;28;19917;-85
2023/12/25 09:42:58;;;;;;;;;;;5.70;99.90;;;;;;5035759;28;20276;-85
2023/12/25 09:45:25;;;;;;;;;;;5.70;99.90;;;;;;5033969;28;20626;-85
2023/12/25 09:47:52;;;;;;;;;;;5.70;99.90;;;;;;5033709;28;20022;-84
2023/12/25 09:50:19;;;;;;;;;;;5.70;99.90;;;;;;5033650;28;19909;-85
2023/12/25 09:52:45;;;;;;;;;;;5.70;99.90;;;;;;5033382;28;20166;-84
2023/12/25 09:55:10;;;;;;;;;;;5.70;99.90;;;;;;5034074;28;20024;-86
2023/12/25 09:57:36;;;;;;;;;;;5.70;99.90;;;;;;5033854;28;19913;-85
2023/12/25 10:00:04;;;;;;;;;;;5.70;99.90;;;;;;5033191;28;19952;-85
2023/12/25 10:02:33;;;;;;;;;;;5.70;99.90;;;;;;5033568;28;20011;-85
2023/12/25 10:05:06;;;;;;;;;;;5.70;99.90;;;;;;5033739;28;19916;-85
2023/12/25 10:07:32;;;;;;;;;;;5.60;99.90;;;;;;5017657;28;19913;-85
2023/12/25 10:09:58;;;;;;;;;;;5.60;99.90;;;;;;5032617;28;20358;-85
2023/12/25 10:12:24;;;;;;;;;;;5.60;99.90;;;;;;5032958;28;19909;-85
2023/12/25 10:14:50;;;;;;;;;;;5.70;99.90;;;;;;5032743;28;19913;-85
2023/12/25 10:17:16;;;;;;;;;;;5.70;99.90;;;;;;5032952;28;20383;-85
2023/12/25 10:19:49;;;;;;;;;;;5.60;99.90;;;;;;5033109;28;19915;-85
2023/12/25 10:22:31;;;;;;;;;;;5.70;99.90;;;;;;5033296;28;20611;-85
2023/12/25 10:25:21;;;;;;;;;;;5.70;99.90;;;;;;5032840;28;19949;-85
2023/12/25 10:27:47;;;;;;;;;;;5.70;99.90;;;;;;5033070;28;19913;-85
2023/12/25 10:30:17;;;;;;;;;;;5.70;99.90;;;;;;5032499;28;20349;-84
2023/12/25 10:33:14;;;;;;;;;;;5.70;99.90;;;;;;5032938;28;20006;-85
2023/12/25 10:35:40;;;;;;;;;;;5.70;99.90;;;;;;5033081;28;19916;-85
2023/12/25 10:38:07;;;;;;;;;;;5.80;99.90;;;;;;5032477;28;20434;-85
2023/12/25 10:40:33;;;;;;;;;;;5.80;99.90;;;;;;5032926;28;19920;-85
2023/12/25 10:42:59;;;;;;;;;;;5.80;99.90;;;;;;5016681;28;19913;-85
2023/12/25 10:45:25;;;;;;;;;;;5.80;99.90;;;;;;5033124;28;19987;-84
2023/12/25 10:47:53;;;;;;;;;;;5.80;99.90;;;;;;5032979;28;20545;-85
2023/12/25 10:50:20;;;;;;;;;;;5.80;99.90;;;;;;5049664;28;19963;-86
2023/12/25 10:52:47;;;;;;;;;;;5.80;99.90;;;;;;5032250;28;19917;-85
2023/12/25 10:55:15;;;;;;;;;;;5.80;99.90;;;;;;5032244;28;19909;-84
2023/12/25 10:57:40;;;;;;;;;;;5.80;99.90;;;;;;5015523;28;19957;-85
2023/12/25 11:00:10;;;;;;;;;;;5.80;99.90;;;;;;5032651;28;19952;-85
2023/12/25 11:02:45;;;;;;;;;;;5.80;99.90;;;;;;5048513;28;20399;-84
2023/12/25 11:05:11;;;;;;;;;;;5.80;99.90;;;;;;5031983;28;19921;-85
2023/12/25 11:07:38;;;;;;;;;;;5.80;99.90;;;;;;5015371;28;19909;-85
2023/12/25 11:10:08;;;;;;;;;;;5.80;99.90;;;;;;5032056;28;20000;-85
2023/12/25 11:12:34;;;;;;;;;;;5.80;99.90;;;;;;5031941;28;19908;-85
2023/12/25 11:14:59;;;;;;;;;;;5.80;99.90;;;;;;5032736;28;20335;-85
2023/12/25 11:17:27;;;;;;;;;;;5.80;99.90;;;;;;5015847;28;19972;-85
2023/12/25 11:23:21;;;;;;;;;;;5.80;99.90;;;;;;5032988;28;20311;-84
2023/12/25 11:25:47;;;;;;;;;;;5.80;99.90;;;;;;5032091;28;19909;-85
2023/12/25 11:28:13;;;;;;;;;;;5.80;99.90;;;;;;5015788;28;19947;-85
2023/12/25 11:30:39;;;;;;;;;;;5.90;99.90;;;;;;5031646;28;19909;-85
2023/12/25 11:33:07;;;;;;;;;;;5.80;99.90;;;;;;5030807;28;19920;-85
2023/12/25 11:35:33;;;;;;;;;;;5.90;99.90;;;;;;5031770;28;19909;-85
2023/12/25 11:38:21;;;;;;;;;;;5.80;99.90;;;;;;5031993;28;20781;-85
2023/12/25 11:40:52;;;;;;;;;;;5.90;99.90;;;;;;5031936;28;19909;-85
2023/12/25 11:43:18;;;;;;;;;;;5.90;99.90;;;;;;4998886;28;19924;-85
2023/12/25 11:45:44;;;;;;;;;;;5.90;99.90;;;;;;5031955;28;19920;-85
2023/12/25 11:48:11;;;;;;;;;;;5.90;99.90;;;;;;5031443;28;19909;-84
2023/12/25 11:50:37;;;;;;;;;;;5.90;99.90;;;;;;5030931;28;19909;-85
2023/12/25 11:53:03;;;;;;;;;;;5.90;99.90;;;;;;5030483;28;20000;-85
2023/12/25 11:55:29;;;;;;;;;;;5.90;99.90;;;;;;5030184;28;19935;-85
2023/12/25 11:58:01;;;;;;;;;;;5.90;99.90;;;;;;5030735;28;19952;-85
2023/12/25 12:00:29;;;;;;;;;;;5.90;99.90;;;;;;5029525;28;19913;-84
2023/12/25 12:02:54;;;;;;;;;;;5.90;99.90;;;;;;5030024;28;19917;-84
2023/12/25 12:05:20;;;;;;;;;;;5.90;99.90;;;;;;5030849;28;20386;-84
2023/12/25 12:07:46;;;;;;;;;;;5.90;99.90;;;;;;5030385;28;20273;-85
2023/12/25 12:10:12;;;;;;;;;;;5.90;99.90;;;;;;5030632;28;20337;-85
2023/12/25 12:12:38;;;;;;;;;;;5.90;99.90;;;;;;5030557;28;19963;-85
2023/12/25 12:15:04;;;;;;;;;;;5.90;99.90;;;;;;5030840;28;19917;-85
2023/12/25 12:17:31;;;;;;;;;;;5.90;99.90;;;;;;5030506;28;19908;-84
2023/12/25 12:19:56;;;;;;;;;;;5.90;99.90;;;;;;5030801;28;20415;-83
2023/12/25 12:22:23;;;;;;;;;;;5.90;99.90;;;;;;5047992;28;19944;-85
2023/12/25 12:24:49;;;;;;;;;;;5.90;99.90;;;;;;5030465;28;19917;-85
2023/12/25 12:27:18;;;;;;;;;;;5.90;99.90;;;;;;5013917;28;19913;-85
2023/12/25 12:29:44;;;;;;;;;;;5.90;99.90;;;;;;5031374;28;19947;-85
2023/12/25 12:32:09;;;;;;;;;;;5.90;99.90;;;;;;5031313;28;19955;-85
2023/12/25 12:34:35;;;;;;;;;;;5.90;99.90;;;;;;5031558;28;20020;-85
2023/12/25 12:37:03;;;;;;;;;;;5.90;99.90;;;;;;5031289;28;19929;-85
2023/12/25 12:39:32;;;;;;;;;;;6.00;99.90;;;;;;5031330;28;19909;-85
2023/12/25 12:41:58;;;;;;;;;;;5.90;99.90;;;;;;5030679;28;19916;-85
2023/12/25 12:44:24;;;;;;;;;;;5.90;99.90;;;;;;5030801;28;20311;-85
2023/12/25 12:46:53;;;;;;;;;;;5.90;99.90;;;;;;5031409;28;19916;-85
2023/12/25 12:49:19;;;;;;;;;;;5.90;99.90;;;;;;5032003;28;19935;-85
2023/12/25 12:51:45;;;;;;;;;;;5.90;99.90;;;;;;5031389;28;20811;-85
2023/12/25 12:54:11;;;;;;;;;;;6.00;99.90;;;;;;5031103;28;20039;-86
2023/12/25 12:56:36;;;;;;;;;;;5.90;99.90;;;;;;5030460;28;19911;-85
2023/12/25 12:59:02;;;;;;;;;;;5.90;99.90;;;;;;5032638;28;19999;-85
2023/12/25 13:01:31;;;;;;;;;;;5.90;99.90;;;;;;5033366;28;19916;-86
2023/12/25 13:03:57;;;;;;;;;;;5.90;99.90;;;;;;5033453;28;20330;-86
2023/12/25 13:06:23;;;;;;;;;;;6.00;99.90;;;;;;5033470;28;19916;-85
2023/12/25 13:08:52;;;;;;;;;;;6.00;99.90;;;;;;5033847;28;20007;-85
2023/12/25 13:11:27;;;;;;;;;;;6.00;99.90;;;;;;5035038;28;20374;-85
2023/12/25 13:13:52;;;;;;;;;;;5.90;99.90;;;;;;5036878;28;19959;-86
2023/12/25 13:16:24;;;;;;;;;;;5.90;99.90;;;;;;5037513;28;19909;-85
2023/12/25 13:18:50;;;;;;;;;;;6.00;99.90;;;;;;5037785;28;19909;-85
2023/12/25 13:21:16;;;;;;;;;;;6.00;99.90;;;;;;5038073;28;20015;-85
2023/12/25 13:23:42;;;;;;;;;;;6.00;99.90;;;;;;5036389;28;19913;-86
2023/12/25 13:26:08;;;;;;;;;;;6.00;99.90;;;;;;5036806;28;19962;-85
2023/12/25 13:28:34;;;;;;;;;;;6.00;99.90;;;;;;5036225;28;20004;-86
2023/12/25 13:31:05;;;;;;;;;;;6.00;99.90;;;;;;5035353;28;20329;-86
2023/12/25 13:33:31;;;;;;;;;;;6.00;99.90;;;;;;5036136;28;19967;-86
2023/12/25 13:35:57;;;;;;;;;;;6.10;99.90;;;;;;5035595;28;19913;-86
2023/12/25 13:38:23;;;;;;;;;;;6.00;99.90;;;;;;5035700;28;20327;-85
2023/12/25 13:40:50;;;;;;;;;;;6.10;99.90;;;;;;5036625;28;19959;-85
2023/12/25 13:43:15;;;;;;;;;;;6.10;99.90;;;;;;5035351;28;19917;-86
2023/12/25 13:45:41;;;;;;;;;;;6.10;99.90;;;;;;5036222;28;19920;-86
2023/12/25 13:48:07;;;;;;;;;;;6.10;99.90;;;;;;5035350;28;20371;-86
2023/12/25 13:50:32;;;;;;;;;;;6.10;99.90;;;;;;5035393;28;20335;-85
2023/12/25 13:52:58;;;;;;;;;;;6.10;99.90;;;;;;5036216;28;19905;-86
2023/12/25 13:55:23;;;;;;;;;;;6.10;99.90;;;;;;5034820;28;20296;-85
2023/12/25 13:57:49;;;;;;;;;;;6.10;99.90;;;;;;5035331;28;19909;-86
2023/12/25 14:00:15;;;;;;;;;;;6.10;99.90;;;;;;5034592;28;19929;-86
2023/12/25 14:02:40;;;;;;;;;;;6.10;99.90;;;;;;5035186;28;19912;-86
2023/12/25 14:05:06;;;;;;;;;;;6.10;99.90;;;;;;5033926;28;19924;-86
2023/12/25 14:07:32;;;;;;;;;;;6.10;99.90;;;;;;5017772;28;19913;-85
2023/12/25 14:09:58;;;;;;;;;;;6.10;99.90;;;;;;5033224;28;19913;-85
2023/12/25 14:12:24;;;;;;;;;;;6.10;99.90;;;;;;5034061;28;19931;-85
2023/12/25 14:14:49;;;;;;;;;;;6.20;99.90;;;;;;5033817;28;19909;-85
2023/12/25 14:17:15;;;;;;;;;;;6.10;99.90;;;;;;5033211;28;19917;-85
2023/12/25 14:19:40;;;;;;;;;;;6.10;99.90;;;;;;5032807;28;19909;-85
2023/12/25 14:22:06;;;;;;;;;;;6.20;99.90;;;;;;5032003;28;19952;-85
2023/12/25 14:24:44;;;;;;;;;;;6.20;99.90;;;;;;5048932;28;19921;-85
2023/12/25 14:27:11;;;;;;;;;;;6.20;99.90;;;;;;5033349;28;19978;-85
2023/12/25 14:29:37;;;;;;;;;;;6.20;99.90;;;;;;5033080;28;20392;-85
2023/12/25 14:32:06;;;;;;;;;;;6.20;99.90;;;;;;5049501;28;19916;-85
2023/12/25 14:34:32;;;;;;;;;;;6.20;99.90;;;;;;5033107;28;19909;-85